Time;durP1;ratioP1;P1;durP2;ratioP2;P2;SDS_P1;SDS_P2;PMS_P1;PMS_P2;Temp;Humidity;BMP_temperature;BMP_pressure;BME280_temperature;BME280_humidity;BME280_pressure;Samples;Min_cycle;Max_cycle;Signal;HPM_P1;HPM_P2
2022/06/11 00:00:23;;;;;;;9.55;5.87;;;;;;;23.25;35.50;147976.03;1753697;80;21078;-61
2022/06/11 00:02:50;;;;;;;13.13;7.00;;;;;;;23.25;35.03;147976.03;1752013;80;21023;-60
2022/06/11 00:05:18;;;;;;;15.00;7.17;;;;;;;23.34;35.00;147998.84;1755411;80;21028;-60
2022/06/11 00:07:47;;;;;;;12.80;7.95;;;;;;;23.39;35.05;148011.50;1755511;80;21028;-61
2022/06/11 00:10:15;;;;;;;15.88;9.18;;;;;;;23.39;35.21;148011.50;1761826;80;21019;-60
2022/06/11 00:12:42;;;;;;;11.70;6.83;;;;;;;23.39;35.41;148011.50;1755044;80;21015;-60
2022/06/11 00:15:11;;;;;;;11.38;7.62;;;;;;;23.40;34.95;148014.02;1757861;80;21039;-60
2022/06/11 00:17:38;;;;;;;13.30;6.83;;;;;;;23.42;35.01;148019.09;1761266;80;20988;-61
2022/06/11 00:20:07;;;;;;;14.55;8.15;;;;;;;23.45;34.92;148025.42;1753604;80;21515;-60
2022/06/11 00:22:34;;;;;;;16.75;8.80;;;;;;;23.48;35.08;148034.27;1750583;80;21476;-61
2022/06/11 00:25:01;;;;;;;10.18;6.80;;;;;;;23.44;35.30;148024.17;1753481;80;21008;-60
2022/06/11 00:27:28;;;;;;;11.22;7.78;;;;;;;23.38;35.17;148010.25;1757280;80;21027;-61
2022/06/11 00:29:55;;;;;;;15.30;6.58;;;;;;;23.33;35.36;147996.28;1753516;80;21793;-60
2022/06/11 00:32:23;;;;;;;8.68;5.67;;;;;;;23.33;35.16;147996.28;1743604;80;21031;-59
2022/06/11 00:34:50;;;;;;;12.13;7.25;;;;;;;23.39;34.85;148011.50;1729133;81;21016;-61
2022/06/11 00:37:18;;;;;;;11.68;6.75;;;;;;;23.44;34.97;148022.91;1720554;82;21047;-61
2022/06/11 00:39:46;;;;;;;13.45;8.25;;;;;;;23.44;34.96;148022.91;1718999;82;21079;-61
2022/06/11 00:42:20;;;;;;;11.85;6.62;;;;;;;23.35;35.18;148002.61;1725896;81;21059;-59
2022/06/11 00:44:48;;;;;;;12.25;7.20;;;;;;;23.24;35.32;147973.53;1720348;82;21023;-60
2022/06/11 00:47:22;;;;;;;11.45;7.10;;;;;;;23.10;35.57;147940.62;1728964;81;21066;-61
2022/06/11 00:49:58;;;;;;;11.12;7.08;;;;;;;23.02;35.88;147920.33;1722016;82;21029;-61
2022/06/11 00:52:40;;;;;;;11.50;7.45;;;;;;;23.01;35.96;147917.81;1717719;82;21016;-60
2022/06/11 00:55:31;;;;;;;16.55;12.20;;;;;;;22.95;36.50;147902.59;1719750;82;21046;-61
2022/06/11 00:58:15;;;;;;;21.30;14.60;;;;;;;22.88;38.21;147884.86;1727043;81;21074;-60
2022/06/11 01:00:47;;;;;;;16.00;10.55;;;;;;;22.34;39.04;147752.00;1737987;81;21591;-62
2022/06/11 01:03:18;;;;;;;15.25;9.58;;;;;;;22.10;38.36;147692.45;1721535;81;21075;-61
2022/06/11 01:05:51;;;;;;;;;;;;;;;22.13;38.24;147700.03;1725161;82;21046;-61
2022/06/11 01:08:40;;;;;;;13.25;9.40;;;;;;;22.20;38.09;147717.81;1717186;82;20107;-62
2022/06/11 01:11:51;;;;;;;19.30;11.25;;;;;;;22.29;38.04;147739.34;1719001;82;21047;-61
2022/06/11 01:14:39;;;;;;;20.35;13.48;;;;;;;22.45;38.00;147779.81;1725736;81;21031;-62
2022/06/11 01:17:45;;;;;;;17.45;9.63;;;;;;;22.46;38.49;147781.06;1718853;82;21081;-60
2022/06/11 01:20:24;;;;;;;17.85;11.03;;;;;;;22.31;38.03;147745.67;1725615;81;21043;-61
2022/06/11 01:23:08;;;;;;;18.32;12.10;;;;;;;22.25;38.26;147730.45;1725740;81;21043;-60
2022/06/11 01:25:45;;;;;;;18.48;13.13;;;;;;;22.24;38.29;147726.69;1717209;82;21071;-60
2022/06/11 01:29:06;;;;;;;18.52;12.28;;;;;;;22.17;38.76;147710.19;1725885;82;20996;-60
2022/06/11 01:31:45;;;;;;;17.67;12.35;;;;;;;22.05;38.88;147679.81;1709485;82;21184;-61
2022/06/11 01:34:23;;;;;;;20.30;11.60;;;;;;;21.92;39.29;147648.19;1753344;81;20999;-60
2022/06/11 01:36:56;;;;;;;19.75;11.12;;;;;;;21.96;38.72;147657.06;1751861;81;21070;-61
2022/06/11 01:39:52;;;;;;;17.15;12.13;;;;;;;22.03;38.70;147674.73;1751231;81;21026;-61
2022/06/11 01:42:30;;;;;;;19.98;11.70;;;;;;;22.04;38.85;147677.30;1753307;80;21035;-61
2022/06/11 01:45:30;;;;;;;20.50;11.65;;;;;;;21.96;38.57;147658.33;1749691;80;21513;-61
2022/06/11 01:47:58;;;;;;;16.87;11.38;;;;;;;21.95;38.68;147654.50;1744069;81;21567;-60
2022/06/11 01:50:29;;;;;;;17.12;11.97;;;;;;;21.91;38.74;147644.41;1743766;81;21034;-60
2022/06/11 01:53:14;;;;;;;18.82;12.78;;;;;;;21.85;39.26;147631.77;1748660;80;21015;-59
2022/06/11 01:55:49;;;;;;;19.05;12.68;;;;;;;21.80;39.46;147619.08;1755004;81;21497;-61
2022/06/11 01:58:46;;;;;;;18.02;12.90;;;;;;;21.78;40.05;147614.06;1750888;80;21075;-62
2022/06/11 02:01:36;;;;;;;16.07;10.58;;;;;;;21.67;40.12;147586.20;1750479;80;21516;-62
2022/06/11 02:04:17;;;;;;;18.60;12.70;;;;;;;21.58;40.04;147563.47;1756924;80;21047;-61
2022/06/11 02:07:06;;;;;;;16.20;11.30;;;;;;;21.46;40.51;147535.63;1765674;80;21037;-60
2022/06/11 02:09:55;;;;;;;17.82;11.78;;;;;;;21.45;40.38;147531.86;1767159;80;21087;-60
2022/06/11 02:12:44;;;;;;;22.37;11.88;;;;;;;21.55;40.04;147557.14;1758662;80;21139;-60
2022/06/11 02:15:20;;;;;;;17.00;12.05;;;;;;;21.62;39.93;147573.56;1758473;80;21014;-60
2022/06/11 02:17:53;;;;;;;12.82;8.95;;;;;;;21.65;39.86;147581.12;1774491;80;21033;-60
2022/06/11 02:20:30;;;;;;;17.50;10.20;;;;;;;21.81;39.31;147621.63;1779119;79;21525;-61
2022/06/11 02:23:02;;;;;;;13.85;10.65;;;;;;;22.04;38.94;147678.55;1779661;79;21005;-60
2022/06/11 02:25:38;;;;;;;19.42;12.50;;;;;;;22.15;39.04;147703.84;1764231;80;21515;-60
2022/06/11 02:28:10;;;;;;;21.05;13.15;;;;;;;22.10;39.60;147692.45;1767577;80;21494;-60
2022/06/11 02:30:38;;;;;;;;;;;;;;;22.01;40.24;147669.72;1713479;83;21520;-61
2022/06/11 02:33:11;;;;;;;23.52;14.20;;;;;;;21.89;40.58;147641.86;1671842;84;20100;-61
2022/06/11 02:35:47;;;;;;;15.28;8.83;;;;;;;21.82;40.80;147624.14;1679229;84;21561;-60
2022/06/11 02:38:19;;;;;;;19.05;12.43;;;;;;;21.78;40.13;147614.06;1650301;85;21048;-61
2022/06/11 02:40:49;;;;;;;;;;;;;;;21.88;40.20;147639.34;1684301;84;21060;-60
2022/06/11 02:43:16;;;;;;;23.67;13.18;;;;;;;21.87;39.92;147636.78;1680397;84;20116;-61
2022/06/11 02:45:43;;;;;;;17.35;12.82;;;;;;;21.81;40.57;147621.63;1691904;83;21143;-61
2022/06/11 02:48:12;;;;;;;23.75;13.75;;;;;;;21.77;40.75;147610.25;1677518;85;21024;-61
2022/06/11 02:50:39;;;;;;;20.92;14.03;;;;;;;21.73;41.08;147601.41;1677549;84;21056;-60
2022/06/11 02:53:08;;;;;;;22.55;12.05;;;;;;;21.70;41.29;147593.78;1677528;84;21499;-61
2022/06/11 02:55:38;;;;;;;20.52;12.53;;;;;;;21.63;40.90;147576.11;1677645;84;21096;-60
2022/06/11 02:58:08;;;;;;;16.62;8.68;;;;;;;21.62;41.63;147573.56;1677632;84;21032;-61
2022/06/11 03:00:40;;;;;;;10.90;6.12;;;;;;;21.69;40.09;147591.27;1677764;84;21036;-61
2022/06/11 03:03:08;;;;;;;13.48;8.33;;;;;;;21.83;39.37;147626.70;1677420;84;21111;-60
2022/06/11 03:05:37;;;;;;;10.60;6.65;;;;;;;21.97;39.62;147659.58;1677429;84;21095;-61
2022/06/11 03:08:08;;;;;;;13.98;7.45;;;;;;;22.11;38.98;147695.02;1677642;84;21044;-61
2022/06/11 03:10:37;;;;;;;10.70;5.03;;;;;;;22.25;38.79;147730.45;1677734;84;21553;-61
2022/06/11 03:13:06;;;;;;;14.78;7.83;;;;;;;22.37;38.42;147759.58;1677559;84;21091;-61
2022/06/11 03:15:34;;;;;;;12.68;7.22;;;;;;;22.45;38.54;147778.56;1677626;84;21556;-61
2022/06/11 03:18:03;;;;;;;11.38;7.35;;;;;;;22.49;38.50;147788.66;1677347;84;21075;-61
2022/06/11 03:20:32;;;;;;;11.65;5.87;;;;;;;22.49;38.50;147789.95;1677492;84;21514;-62
2022/06/11 03:22:59;;;;;;;12.43;8.13;;;;;;;22.48;38.34;147786.14;1677477;84;21063;-61
2022/06/11 03:25:26;;;;;;;16.27;7.55;;;;;;;22.49;38.65;147788.66;1677449;84;21052;-61
2022/06/11 03:27:54;;;;;;;13.78;7.50;;;;;;;22.50;38.54;147792.47;1677649;84;21096;-60
2022/06/11 03:30:22;;;;;;;16.17;8.45;;;;;;;22.52;38.51;147796.28;1677388;85;21032;-62
2022/06/11 03:32:49;;;;;;;13.65;7.95;;;;;;;22.52;38.51;147797.53;1677371;84;21063;-59
2022/06/11 03:35:17;;;;;;;16.62;10.10;;;;;;;22.53;38.63;147800.05;1677599;84;21048;-61
2022/06/11 03:37:44;;;;;;;13.70;8.45;;;;;;;22.57;38.84;147808.94;1677402;84;21096;-61
2022/06/11 03:40:12;;;;;;;11.08;6.42;;;;;;;22.58;39.00;147810.19;1677412;84;21079;-60
2022/06/11 03:42:40;;;;;;;15.18;7.15;;;;;;;22.58;38.73;147811.44;1677645;84;21498;-62
2022/06/11 03:45:09;;;;;;;9.83;6.37;;;;;;;22.61;38.46;147819.03;1677477;84;21064;-61
2022/06/11 03:47:38;;;;;;;11.25;6.87;;;;;;;22.65;38.75;147829.17;1677685;84;21020;-62
2022/06/11 03:50:09;;;;;;;13.55;6.87;;;;;;;22.69;38.65;147839.27;1677354;84;21052;-61
2022/06/11 03:52:37;;;;;;;13.98;6.75;;;;;;;22.72;38.36;147846.91;1677109;85;21047;-62
2022/06/11 03:55:06;;;;;;;23.95;8.10;;;;;;;22.76;38.39;147857.00;1677348;84;21083;-61
2022/06/11 03:57:34;;;;;;;17.48;9.48;;;;;;;22.79;38.69;147862.06;1677601;84;21044;-60
2022/06/11 04:00:05;;;;;;;18.00;9.15;;;;;;;22.79;39.14;147863.31;1677406;85;21052;-62
2022/06/11 04:02:34;;;;;;;19.87;9.75;;;;;;;22.79;39.46;147862.06;1677591;84;21040;-61
2022/06/11 04:05:01;;;;;;;11.68;7.70;;;;;;;22.79;39.19;147863.31;1677696;85;21036;-61
2022/06/11 04:07:29;;;;;;;16.73;9.63;;;;;;;22.80;39.36;147865.88;1677544;84;21573;-60
2022/06/11 04:09:56;;;;;;;16.73;6.65;;;;;;;22.84;39.71;147874.72;1677468;84;21573;-60
2022/06/11 04:12:23;;;;;;;16.52;8.88;;;;;;;22.90;38.26;147891.19;1677390;84;21087;-60
2022/06/11 04:14:52;;;;;;;18.67;8.73;;;;;;;22.96;39.20;147905.11;1677466;84;21087;-60
2022/06/11 04:17:30;;;;;;;17.23;9.53;;;;;;;22.99;39.38;147911.48;1677428;85;21558;-60
2022/06/11 04:19:58;;;;;;;12.63;7.22;;;;;;;23.04;39.33;147924.14;1677622;85;21040;-61
2022/06/11 04:22:25;;;;;;;13.72;8.70;;;;;;;23.10;38.08;147940.62;1677362;85;21049;-62
2022/06/11 04:24:52;;;;;;;18.37;8.93;;;;;;;23.16;38.85;147955.78;1677373;84;21119;-62
2022/06/11 04:27:21;;;;;;;17.15;9.10;;;;;;;23.26;38.47;147978.59;1677374;84;21040;-62
2022/06/11 04:29:53;;;;;;;13.90;8.45;;;;;;;23.34;39.05;148000.09;1677642;84;21067;-61
2022/06/11 04:32:21;;;;;;;16.32;8.60;;;;;;;23.42;38.89;148017.84;1686321;83;21005;-61
2022/06/11 04:34:50;;;;;;;19.27;9.45;;;;;;;23.52;39.27;148044.41;1701878;83;21024;-61
2022/06/11 04:37:21;;;;;;;15.20;9.38;;;;;;;23.59;39.84;148062.16;1701749;83;21052;-62
2022/06/11 04:39:53;;;;;;;12.53;8.70;;;;;;;23.66;39.60;148078.63;1702038;83;21008;-61
2022/06/11 04:42:20;;;;;;;;;;;;;;;23.74;39.61;148097.69;1704488;83;21032;-61
2022/06/11 04:44:48;;;;;;;17.98;8.13;;;;;;;23.79;39.84;148110.34;1701867;83;20399;-61
2022/06/11 04:47:21;;;;;;;14.28;8.58;;;;;;;23.83;39.90;148121.70;1701591;84;21111;-61
2022/06/11 04:49:51;;;;;;;12.33;7.55;;;;;;;23.88;39.95;148133.11;1702097;83;20996;-61
2022/06/11 04:52:21;;;;;;;14.35;7.53;;;;;;;23.94;39.38;148147.03;1702179;83;21021;-61
2022/06/11 04:54:48;;;;;;;12.10;7.35;;;;;;;23.98;38.62;148158.44;1701860;83;21522;-61
2022/06/11 04:57:17;;;;;;;10.65;6.67;;;;;;;24.03;39.50;148171.11;1701765;84;21044;-62
2022/06/11 04:59:44;;;;;;;10.03;6.17;;;;;;;24.08;38.16;148181.27;1701963;83;21056;-60
2022/06/11 05:02:11;;;;;;;12.25;6.53;;;;;;;24.15;37.28;148199.00;1701899;83;21005;-61
2022/06/11 05:04:38;;;;;;;12.88;6.47;;;;;;;24.24;38.33;148221.78;1701815;83;21533;-62
2022/06/11 05:07:05;;;;;;;10.75;6.47;;;;;;;24.32;37.53;148240.78;1701773;83;21083;-61
2022/06/11 05:09:33;;;;;;;11.48;6.28;;;;;;;24.41;37.73;148264.87;1701756;83;21083;-61
2022/06/11 05:12:01;;;;;;;11.33;5.90;;;;;;;24.53;37.48;148292.81;1701929;83;21071;-62
2022/06/11 05:14:30;;;;;;;12.40;5.50;;;;;;;24.62;36.96;148315.59;1701714;83;21131;-60
2022/06/11 05:16:59;;;;;;;12.25;5.78;;;;;;;24.71;36.87;148338.42;1701723;83;21561;-61
2022/06/11 05:19:26;;;;;;;10.13;5.83;;;;;;;24.82;35.85;148366.28;1701948;83;21008;-60
2022/06/11 05:21:54;;;;;;;13.08;5.75;;;;;;;24.95;35.84;148396.72;1703680;83;21107;-62
2022/06/11 05:24:21;;;;;;;13.58;9.00;;;;;;;25.09;36.18;148432.22;1711260;82;21511;-61
2022/06/11 05:27:00;;;;;;;10.40;6.15;;;;;;;25.21;35.64;148462.66;1711078;82;21046;-61
2022/06/11 05:29:32;;;;;;;14.63;6.22;;;;;;;25.35;35.21;148496.91;1710336;82;21082;-61
2022/06/11 05:31:59;;;;;;;11.05;6.12;;;;;;;25.46;35.40;148524.78;1703806;82;21052;-61
2022/06/11 05:34:30;;;;;;;18.60;5.95;;;;;;;25.60;34.82;148557.78;1677571;84;21032;-60
2022/06/11 05:36:57;;;;;;;11.08;5.67;;;;;;;25.72;34.29;148589.48;1677848;84;21073;-62
2022/06/11 05:39:26;;;;;;;10.00;5.83;;;;;;;25.87;33.62;148625.02;1684295;83;21116;-62
2022/06/11 05:41:53;;;;;;;14.73;6.22;;;;;;;26.02;32.68;148661.81;1681607;83;21038;-61
2022/06/11 05:44:21;;;;;;;9.18;5.90;;;;;;;26.15;32.34;148696.03;1720640;82;21047;-61
2022/06/11 05:46:49;;;;;;;11.08;5.92;;;;;;;26.33;31.49;148739.17;1722088;82;21039;-62
2022/06/11 05:49:24;;;;;;;10.38;5.95;;;;;;;26.49;31.50;148778.53;1720157;82;21226;-61
2022/06/11 05:51:56;;;;;;;11.63;5.78;;;;;;;26.75;31.30;148843.28;1722330;82;21039;-61
2022/06/11 05:54:28;;;;;;;12.23;6.75;;;;;;;28.00;29.99;149153.13;1721372;82;21055;-61
2022/06/11 05:56:56;;;;;;;12.37;6.20;;;;;;;29.66;27.34;149564.94;1719883;82;21066;-61
2022/06/11 05:59:26;;;;;;;13.62;6.72;;;;;;;31.06;25.96;149914.77;1719447;82;21094;-61
2022/06/11 06:01:54;;;;;;;13.32;6.12;;;;;;;31.94;24.22;150133.78;1721769;82;21060;-62
2022/06/11 06:04:21;;;;;;;16.87;7.30;;;;;;;32.76;23.23;150336.28;1719934;82;21083;-63
2022/06/11 06:06:49;;;;;;;14.63;6.42;;;;;;;33.37;22.03;150487.92;1702159;83;21042;-61
2022/06/11 06:09:15;;;;;;;11.95;7.10;;;;;;;33.84;21.64;150605.17;1679486;84;21505;-61
2022/06/11 06:11:43;;;;;;;11.63;6.20;;;;;;;34.12;20.62;150676.62;1740511;81;21033;-61
2022/06/11 06:14:10;;;;;;;12.63;6.25;;;;;;;34.51;20.72;150772.22;1735160;81;21481;-61
2022/06/11 06:16:37;;;;;;;11.73;7.03;;;;;;;35.04;19.83;150904.87;1730904;80;21488;-60
2022/06/11 06:19:05;;;;;;;11.05;6.05;;;;;;;35.63;19.46;151052.91;1725365;82;21053;-61
2022/06/11 06:21:35;;;;;;;12.18;6.60;;;;;;;36.11;19.01;151171.62;1734673;82;21523;-65
2022/06/11 06:24:03;;;;;;;10.15;5.83;;;;;;;36.33;18.90;151226.45;1741062;80;21055;-61
2022/06/11 06:26:31;;;;;;;11.88;7.03;;;;;;;36.50;18.55;151268.59;1770305;80;21002;-61
2022/06/11 06:28:58;;;;;;;8.05;4.85;;;;;;;36.61;18.26;151295.42;1770097;80;21050;-61
2022/06/11 06:31:25;;;;;;;8.08;5.00;;;;;;;36.39;17.58;151241.80;1758803;80;21035;-61
2022/06/11 06:33:53;;;;;;;7.45;3.83;;;;;;;36.30;17.56;151220.08;1757479;80;21038;-61
2022/06/11 06:36:20;;;;;;;6.85;2.98;;;;;;;36.29;17.39;151216.28;1727311;82;21011;-62
2022/06/11 06:38:47;;;;;;;9.38;4.62;;;;;;;36.18;17.39;151188.17;1733566;81;21021;-61
2022/06/11 06:41:15;;;;;;;9.08;4.45;;;;;;;36.43;17.61;151251.98;1727287;82;21543;-63
2022/06/11 06:43:42;;;;;;;9.40;5.12;;;;;;;37.66;17.20;151558.53;1733999;82;21014;-62
2022/06/11 06:46:09;;;;;;;7.67;4.40;;;;;;;38.49;16.79;151765.53;1723098;82;21471;-62
2022/06/11 06:48:38;;;;;;;8.90;4.25;;;;;;;38.95;15.82;151879.28;1721076;82;21110;-62
2022/06/11 06:51:05;;;;;;;8.33;4.35;;;;;;;39.04;16.21;151903.58;1730187;81;21487;-62
2022/06/11 06:53:37;;;;;;;10.13;5.05;;;;;;;39.38;15.67;151987.95;1740149;81;21023;-62
2022/06/11 06:56:05;;;;;;;7.87;4.77;;;;;;;38.54;16.32;151778.30;1743405;81;21031;-61
2022/06/11 06:58:33;;;;;;;9.93;4.72;;;;;;;37.87;17.15;151609.63;1755427;80;21043;-61
2022/06/11 07:01:02;;;;;;;11.12;4.58;;;;;;;38.32;16.90;151722.03;1752071;80;21471;-62
2022/06/11 07:03:28;;;;;;;10.65;4.42;;;;;;;39.53;16.44;152023.77;1751335;81;21007;-62
2022/06/11 07:05:56;;;;;;;7.45;4.92;;;;;;;40.40;15.60;152241.19;1753370;80;21027;-61
2022/06/11 07:08:23;;;;;;;10.28;4.75;;;;;;;40.08;15.82;152163.16;1752826;80;21051;-62
2022/06/11 07:10:53;;;;;;;7.30;3.65;;;;;;;39.48;15.62;152013.52;1752736;80;21015;-62
2022/06/11 07:13:22;;;;;;;6.60;2.27;;;;;;;39.54;15.19;152026.30;1759157;81;21014;-67
2022/06/11 07:15:54;;;;;;;8.78;2.90;;;;;;;39.70;14.37;152068.50;1754727;80;20999;-64
2022/06/11 07:18:35;;;;;;;6.10;2.67;;;;;;;39.71;13.91;152071.03;1762135;80;21074;-64
2022/06/11 07:21:06;;;;;;;4.83;2.75;;;;;;;39.63;14.27;152049.33;1756602;81;21552;-64
2022/06/11 07:23:42;;;;;;;5.25;2.62;;;;;;;39.63;14.32;152049.33;1753944;80;21045;-62
2022/06/11 07:26:16;;;;;;;6.70;2.60;;;;;;;38.74;14.27;151826.86;1751569;80;21061;-64
2022/06/11 07:28:48;;;;;;;3.85;2.30;;;;;;;38.29;15.02;151714.38;1757957;80;21527;-65
2022/06/11 07:31:16;;;;;;;5.42;3.35;;;;;;;38.46;14.92;151757.88;1758115;80;21011;-65
2022/06/11 07:33:43;;;;;;;5.50;3.42;;;;;;;39.19;14.51;151940.64;1725633;81;21139;-63
2022/06/11 07:36:12;;;;;;;8.18;3.37;;;;;;;39.84;13.89;152101.77;1721437;82;21656;-63
2022/06/11 07:38:39;;;;;;;6.03;3.35;;;;;;;40.50;13.96;152268.03;1720674;82;21057;-65
2022/06/11 07:41:06;;;;;;;7.65;3.25;;;;;;;40.14;13.74;152177.22;1725072;81;21059;-62
2022/06/11 07:43:33;;;;;;;6.00;3.40;;;;;;;39.75;14.10;152078.75;1716871;82;21098;-62
2022/06/11 07:46:00;;;;;;;6.30;3.17;;;;;;;39.16;14.07;151932.98;1718236;82;21521;-63
2022/06/11 07:48:28;;;;;;;4.62;2.75;;;;;;;38.59;14.43;151791.06;1718235;82;21549;-65
2022/06/11 07:50:55;;;;;;;6.47;3.10;;;;;;;38.42;14.54;151747.58;1717839;82;21537;-62
2022/06/11 07:53:23;;;;;;;6.53;3.35;;;;;;;38.63;14.47;151800.05;1720887;82;21007;-63
2022/06/11 07:55:54;;;;;;;14.35;4.47;;;;;;;38.69;15.16;151814.09;1728056;81;21031;-63
2022/06/11 07:58:28;;;;;;;6.55;3.90;;;;;;;38.69;15.16;151814.09;1723324;81;21010;-62
2022/06/11 08:00:57;;;;;;;7.30;3.40;;;;;;;39.85;14.48;152105.63;1717513;82;21548;-63
2022/06/11 08:03:31;;;;;;;6.25;4.15;;;;;;;42.28;12.73;152712.17;1717069;82;21019;-64
2022/06/11 08:05:58;;;;;;;7.42;4.00;;;;;;;42.28;12.73;152712.17;1720930;82;21035;-64
2022/06/11 08:08:26;;;;;;;8.48;3.87;;;;;;;42.77;12.51;152835.12;1720721;82;21054;-64
2022/06/11 08:10:53;;;;;;;9.85;5.03;;;;;;;41.70;12.69;152567.50;1727939;82;21039;-62
2022/06/11 08:13:20;;;;;;;9.43;4.58;;;;;;;40.05;13.71;152154.17;1721674;82;21055;-63
2022/06/11 08:15:49;;;;;;;7.67;4.40;;;;;;;39.60;13.97;152041.66;1724016;81;21042;-63
2022/06/11 08:18:17;;;;;;;7.42;4.50;;;;;;;40.12;14.23;152172.09;1720392;82;21560;-64
2022/06/11 08:20:46;;;;;;;7.62;5.00;;;;;;;41.12;13.54;152421.66;1725871;81;21074;-62
2022/06/11 08:23:14;;;;;;;11.25;5.17;;;;;;;41.61;13.34;152545.77;1734227;81;21054;-64
2022/06/11 08:25:41;;;;;;;10.23;5.33;;;;;;;42.11;12.98;152668.64;1721573;81;21086;-64
2022/06/11 08:28:12;;;;;;;6.45;4.20;;;;;;;42.73;12.66;152824.88;1728282;81;21542;-63
2022/06/11 08:30:41;;;;;;;7.42;4.30;;;;;;;42.69;12.25;152815.88;1716167;82;21015;-65
2022/06/11 08:33:09;;;;;;;8.93;4.20;;;;;;;40.94;13.12;152376.78;1740278;81;21057;-61
2022/06/11 08:35:36;;;;;;;6.95;3.80;;;;;;;40.38;13.61;152236.06;1728305;82;21049;-62
2022/06/11 08:38:04;;;;;;;8.83;4.95;;;;;;;40.84;13.18;152351.20;1728726;81;21088;-65
2022/06/11 08:40:48;;;;;;;11.12;5.15;;;;;;;40.30;13.42;152216.89;1716327;82;21026;-65
2022/06/11 08:43:31;;;;;;;7.12;5.08;;;;;;;39.24;13.99;151953.42;1753592;80;21492;-63
2022/06/11 08:46:15;;;;;;;7.22;4.70;;;;;;;38.85;14.25;151856.27;1764393;80;21039;-61
2022/06/11 08:49:08;;;;;;;9.05;5.62;;;;;;;38.53;14.42;151775.75;1765957;81;21554;-62
2022/06/11 08:52:16;;;;;;;10.05;5.20;;;;;;;37.98;15.14;151637.75;1748807;80;21003;-63
2022/06/11 08:54:46;;;;;;;11.00;5.70;;;;;;;37.32;15.56;151474.19;1735738;81;21048;-62
2022/06/11 08:57:30;;;;;;;7.60;5.00;;;;;;;37.24;15.61;151453.77;1737440;81;21058;-63
2022/06/11 09:00:17;;;;;;;10.55;5.62;;;;;;;37.39;15.17;151490.80;1732546;81;21042;-62
2022/06/11 09:03:06;;;;;;;9.08;5.45;;;;;;;36.89;15.40;151366.94;1741908;81;21484;-63
2022/06/11 09:06:06;;;;;;;8.80;5.17;;;;;;;36.56;15.75;151282.66;1728337;82;21496;-63
2022/06/11 09:08:53;;;;;;;8.27;5.70;;;;;;;36.89;15.29;151366.94;1717680;81;21046;-63
2022/06/11 09:11:57;;;;;;;9.65;5.85;;;;;;;36.89;15.88;151366.94;1777222;80;21036;-63
2022/06/11 09:15:02;;;;;;;9.88;5.80;;;;;;;37.45;15.46;151506.09;1775580;79;21535;-65
2022/06/11 09:17:47;;;;;;;8.68;5.95;;;;;;;38.04;15.19;151653.09;1779503;80;21089;-65
2022/06/11 09:20:43;;;;;;;9.13;6.12;;;;;;;37.30;15.26;151469.11;1774116;79;21044;-66
2022/06/11 09:24:02;;;;;;;12.93;6.15;;;;;;;36.44;16.06;151254.56;1698654;82;21529;-63
2022/06/11 09:26:57;;;;;;;10.75;6.17;;;;;;;35.84;16.55;151103.94;1744120;81;21010;-65
2022/06/11 09:30:03;;;;;;;10.95;6.53;;;;;;;34.50;17.13;150769.64;1729313;81;21532;-65
2022/06/11 09:32:35;;;;;;;10.30;6.25;;;;;;;33.24;18.47;150456.08;1723983;82;21047;-65
2022/06/11 09:35:13;;;;;;;10.30;6.40;;;;;;;32.42;19.59;150252.20;1719829;81;21065;-66
2022/06/11 09:37:54;;;;;;;13.58;7.17;;;;;;;31.96;19.73;150137.62;1721170;81;21508;-62
2022/06/11 09:40:49;;;;;;;11.60;7.15;;;;;;;31.57;20.20;150042.11;1721856;82;21484;-65
2022/06/11 09:43:45;;;;;;;10.40;7.17;;;;;;;31.38;21.08;149992.44;1725484;82;21031;-63
2022/06/11 09:46:26;;;;;;;10.93;6.80;;;;;;;31.14;20.97;149935.17;1719921;81;21090;-63
2022/06/11 09:49:14;;;;;;;17.92;7.10;;;;;;;31.11;21.27;149926.23;1723682;81;21051;-62
2022/06/11 09:51:53;;;;;;;10.53;6.83;;;;;;;31.22;21.73;149952.94;1728970;82;21505;-64
2022/06/11 09:54:57;;;;;;;11.68;7.20;;;;;;;31.08;21.40;149918.61;1734926;81;21567;-65
2022/06/11 09:57:50;;;;;;;12.80;7.65;;;;;;;30.90;21.70;149875.34;1727127;81;21058;-65
2022/06/11 10:00:34;;;;;;;13.75;7.42;;;;;;;30.46;22.38;149765.91;1774719;80;21015;-59
2022/06/11 10:03:35;;;;;;;12.90;7.42;;;;;;;30.22;22.45;149704.81;1779499;80;21124;-59
2022/06/11 10:06:09;;;;;;;10.85;7.62;;;;;;;30.06;22.14;149666.66;1777444;79;21043;-59
2022/06/11 10:08:55;;;;;;;11.25;7.35;;;;;;;29.75;22.76;149587.84;1776835;80;21531;-60
2022/06/11 10:12:11;;;;;;;11.45;7.05;;;;;;;29.75;22.89;149587.84;1782357;80;21114;-59
2022/06/11 10:14:46;;;;;;;11.22;8.05;;;;;;;29.82;22.94;149605.66;1777295;80;21034;-59
2022/06/11 10:17:24;;;;;;;12.58;7.15;;;;;;;29.92;22.70;149631.08;1778201;80;21026;-60
2022/06/11 10:20:25;;;;;;;11.73;7.80;;;;;;;30.03;22.86;149657.78;1760933;80;21049;-59
2022/06/11 10:23:06;;;;;;;12.03;7.17;;;;;;;30.07;22.65;149669.22;1737074;81;21519;-60
2022/06/11 10:25:41;;;;;;;10.72;7.58;;;;;;;30.00;23.20;149651.41;1736398;81;21753;-59
2022/06/11 10:28:37;;;;;;;10.65;7.87;;;;;;;30.01;22.47;149653.94;1735324;81;21033;-60
2022/06/11 10:31:23;;;;;;;12.30;8.25;;;;;;;29.90;22.60;149624.72;1703288;83;21094;-59
2022/06/11 10:34:21;;;;;;;12.10;7.95;;;;;;;29.91;22.91;149627.25;1710353;83;21082;-59
2022/06/11 10:37:03;;;;;;;14.07;7.85;;;;;;;30.08;22.99;149671.75;1703996;83;21506;-60
2022/06/11 10:40:04;;;;;;;11.85;7.53;;;;;;;30.31;22.53;149726.50;1682256;84;21074;-60
2022/06/11 10:42:56;;;;;;;10.38;7.37;;;;;;;30.49;22.60;149773.53;1679194;84;21055;-59
2022/06/11 10:45:23;;;;;;;14.98;7.65;;;;;;;30.73;22.63;149832.03;1681019;84;21070;-60
2022/06/11 10:47:54;;;;;;;15.30;8.23;;;;;;;30.86;22.03;149863.87;1680540;84;21086;-59
2022/06/11 10:50:34;;;;;;;14.60;7.62;;;;;;;30.56;21.90;149788.78;1681295;84;21003;-59
2022/06/11 10:53:36;;;;;;;10.28;7.22;;;;;;;30.29;22.02;149722.66;1681321;84;21516;-60
2022/06/11 10:56:17;;;;;;;13.15;7.10;;;;;;;30.20;22.53;149699.70;1745442;81;21014;-59
2022/06/11 10:59:03;;;;;;;10.25;7.35;;;;;;;30.20;22.25;149699.70;1770799;80;21076;-59
2022/06/11 11:01:36;;;;;;;11.48;6.97;;;;;;;30.24;21.69;149711.20;1759568;80;21037;-60
2022/06/11 11:04:29;;;;;;;10.75;6.92;;;;;;;30.32;21.85;149730.28;1745557;80;21515;-60
2022/06/11 11:07:14;;;;;;;10.70;7.65;;;;;;;30.61;22.13;149801.55;1729940;81;21029;-60
2022/06/11 11:09:41;;;;;;;11.28;7.72;;;;;;;30.84;21.32;149860.09;1736577;82;21037;-60
2022/06/11 11:12:26;;;;;;;11.78;7.30;;;;;;;30.66;21.53;149814.27;1734495;81;21084;-59
2022/06/11 11:15:01;;;;;;;12.23;7.75;;;;;;;30.55;21.48;149786.25;1767728;80;21513;-60
2022/06/11 11:17:32;;;;;;;14.13;8.13;;;;;;;30.60;21.79;149798.97;1771427;80;21030;-59
2022/06/11 11:20:33;;;;;;;12.95;8.00;;;;;;;30.75;21.69;149835.88;1771677;80;21035;-59
2022/06/11 11:23:04;;;;;;;10.15;7.33;;;;;;;30.73;21.72;149832.03;1721913;82;21053;-59
2022/06/11 11:25:39;;;;;;;12.70;7.22;;;;;;;30.61;21.77;149802.81;1716306;82;21073;-59
2022/06/11 11:28:18;;;;;;;13.85;7.22;;;;;;;30.76;21.64;149838.39;1737052;81;21070;-59
2022/06/11 11:30:50;;;;;;;17.25;7.28;;;;;;;30.89;21.46;149871.56;1734477;81;21004;-58
2022/06/11 11:33:26;;;;;;;14.95;7.33;;;;;;;31.10;21.30;149924.97;1759922;80;21023;-60
2022/06/11 11:36:22;;;;;;;10.82;7.10;;;;;;;31.23;21.10;149956.78;1761890;81;21098;-60
2022/06/11 11:39:16;;;;;;;11.05;6.72;;;;;;;31.41;21.15;150000.09;1717305;82;21070;-59
2022/06/11 11:41:52;;;;;;;10.68;7.20;;;;;;;31.68;21.06;150067.56;1718788;82;21164;-62
2022/06/11 11:44:23;;;;;;;11.35;6.40;;;;;;;31.81;20.74;150099.39;1716933;82;21176;-60
2022/06/11 11:46:58;;;;;;;11.28;6.87;;;;;;;31.67;20.31;150066.25;1719049;82;20979;-59
2022/06/11 11:49:30;;;;;;;9.43;5.72;;;;;;;31.53;20.95;150030.66;1727822;81;21521;-59
2022/06/11 11:52:16;;;;;;;9.80;6.33;;;;;;;31.57;20.85;150040.81;1755189;80;21548;-59
2022/06/11 11:54:49;;;;;;;10.50;6.58;;;;;;;31.75;20.65;150085.34;1758325;81;21034;-59